createdAt,value
2023-01-01T00:01:40.927Z,11.80
2023-01-01T00:04:11.976Z,11.80
2023-01-01T00:06:39.784Z,11.70
2023-01-01T00:09:25.314Z,11.70
2023-01-01T00:11:52.975Z,11.70
2023-01-01T00:14:20.639Z,11.70
2023-01-01T00:16:48.419Z,11.70
2023-01-01T00:19:17.441Z,11.70
2023-01-01T00:21:46.441Z,11.50
2023-01-01T00:24:14.140Z,11.50
2023-01-01T00:26:41.807Z,11.50
2023-01-01T00:29:09.559Z,11.50
2023-01-01T00:31:37.346Z,11.50
2023-01-01T00:34:05.031Z,11.40
2023-01-01T00:36:34.016Z,11.40
2023-01-01T00:39:03.169Z,11.40
2023-01-01T00:41:30.835Z,11.40
2023-01-01T00:43:58.523Z,11.40
2023-01-01T00:46:26.239Z,11.40
2023-01-01T00:48:53.923Z,11.40
2023-01-01T00:51:21.566Z,11.40
2023-01-01T00:53:50.579Z,11.30
2023-01-01T00:56:18.244Z,11.40
2023-01-01T00:59:01.349Z,11.30
2023-01-01T01:01:29.789Z,11.30
2023-01-01T01:03:57.543Z,11.30
2023-01-01T01:06:25.230Z,11.40
2023-01-01T01:08:54.243Z,11.40
2023-01-01T01:11:22.621Z,11.40
2023-01-01T01:13:51.332Z,11.40
2023-01-01T01:16:19.958Z,11.40
2023-01-01T01:18:47.713Z,11.50
2023-01-01T01:21:16.114Z,11.50
2023-01-01T01:23:43.756Z,11.50
2023-01-01T01:26:14.530Z,11.50
2023-01-01T01:28:48.836Z,11.60
2023-01-01T01:31:17.355Z,11.70
2023-01-01T01:33:45.721Z,11.70
2023-01-01T01:36:14.126Z,11.80
2023-01-01T01:38:41.973Z,11.80
2023-01-01T01:41:20.520Z,11.80
2023-01-01T01:43:57.790Z,11.80
2023-01-01T01:46:29.632Z,11.80
2023-01-01T01:48:59.484Z,11.70
2023-01-01T01:51:28.699Z,11.80
2023-01-01T01:53:58.247Z,11.80
2023-01-01T01:56:29.020Z,11.70
2023-01-01T01:58:58.116Z,11.70
2023-01-01T02:01:26.620Z,11.70
2023-01-01T02:03:57.488Z,11.70
2023-01-01T02:06:25.708Z,11.70
2023-01-01T02:08:54.306Z,11.60
2023-01-01T02:11:22.293Z,11.60
2023-01-01T02:13:50.200Z,11.50
2023-01-01T02:16:21.708Z,11.60
2023-01-01T02:18:52.061Z,11.60
2023-01-01T02:21:22.401Z,11.50
2023-01-01T02:23:56.196Z,11.50
2023-01-01T02:26:38.471Z,11.50
2023-01-01T02:29:11.985Z,11.50
2023-01-01T02:31:43.906Z,11.40
2023-01-01T02:34:13.973Z,11.30
2023-01-01T02:36:45.461Z,11.40
2023-01-01T02:39:13.621Z,11.30
2023-01-01T02:41:42.518Z,11.40
2023-01-01T02:44:11.752Z,11.30
2023-01-01T02:46:39.472Z,11.30
2023-01-01T02:49:10.672Z,11.30
2023-01-01T02:51:44.844Z,11.30
2023-01-01T02:54:19.637Z,11.30
2023-01-01T02:56:49.751Z,11.30
2023-01-01T02:59:39.726Z,11.20
2023-01-01T03:02:13.499Z,11.20
2023-01-01T03:04:48.588Z,11.10
2023-01-01T03:07:20.652Z,11.10
2023-01-01T03:09:52.289Z,11.00
2023-01-01T03:12:25.246Z,11.00
2023-01-01T03:14:57.460Z,10.90
2023-01-01T03:17:28.947Z,10.90
2023-01-01T03:19:57.320Z,10.90
2023-01-01T03:22:27.852Z,10.90
2023-01-01T03:24:59.077Z,10.90
2023-01-01T03:27:29.642Z,10.90
2023-01-01T03:30:00.654Z,10.90
2023-01-01T03:32:50.487Z,11.00
2023-01-01T03:35:20.813Z,11.00
2023-01-01T03:37:50.328Z,11.00
2023-01-01T03:40:19.738Z,11.00
2023-01-01T03:42:50.469Z,11.00
2023-01-01T03:45:20.888Z,11.10
2023-01-01T03:47:48.830Z,11.10
2023-01-01T03:50:16.692Z,11.10
2023-01-01T03:52:49.870Z,11.10
2023-01-01T03:55:20.755Z,11.00
2023-01-01T03:57:51.961Z,11.10
2023-01-01T04:00:22.538Z,11.00
2023-01-01T04:02:51.753Z,11.00
2023-01-01T04:05:20.245Z,11.00
2023-01-01T04:10:18.942Z,11.00
2023-01-01T04:12:47.859Z,11.00
2023-01-01T04:15:15.731Z,11.00
2023-01-01T04:17:44.706Z,11.00
2023-01-01T04:20:12.955Z,11.00
2023-01-01T04:22:40.708Z,11.00
2023-01-01T04:25:09.244Z,11.00
2023-01-01T04:27:37.261Z,11.00
2023-01-01T04:30:05.415Z,11.00
2023-01-01T04:32:33.079Z,11.00
2023-01-01T04:35:02.137Z,10.90
2023-01-01T04:37:29.802Z,11.00
2023-01-01T04:39:57.433Z,10.90
2023-01-01T04:42:25.081Z,10.90
2023-01-01T04:44:52.741Z,10.80
2023-01-01T04:47:20.376Z,10.70
2023-01-01T04:49:48.058Z,10.70
2023-01-01T04:52:17.302Z,10.60
2023-01-01T04:54:45.018Z,10.60
2023-01-01T04:57:12.664Z,10.60
2023-01-01T04:59:40.387Z,10.60
2023-01-01T05:02:08.112Z,10.50
2023-01-01T05:04:35.856Z,10.40
2023-01-01T05:07:03.525Z,10.50
2023-01-01T05:09:32.537Z,10.50
2023-01-01T05:12:00.191Z,10.50
2023-01-01T05:14:27.848Z,10.50
2023-01-01T05:16:55.593Z,10.50
2023-01-01T05:19:23.285Z,10.50
2023-01-01T05:21:50.958Z,10.50
2023-01-01T05:24:18.600Z,10.50
2023-01-01T05:26:47.901Z,10.50
2023-01-01T05:29:17.280Z,10.50
2023-01-01T05:31:45.599Z,10.50
2023-01-01T05:34:13.293Z,10.50
2023-01-01T05:36:40.979Z,10.50
2023-01-01T05:39:09.638Z,10.50
2023-01-01T05:41:37.335Z,10.50
2023-01-01T05:44:07.328Z,10.50
2023-01-01T05:46:35.057Z,10.60
2023-01-01T05:49:02.711Z,10.50
2023-01-01T05:53:59.088Z,10.40
2023-01-01T05:56:26.848Z,10.50
2023-01-01T05:58:54.940Z,10.50
2023-01-01T06:01:25.324Z,10.50
2023-01-01T06:03:54.054Z,10.50
2023-01-01T06:06:22.698Z,10.50
2023-01-01T06:08:51.108Z,10.40
2023-01-01T06:11:18.830Z,10.40
2023-01-01T06:13:46.542Z,10.40
2023-01-01T06:16:14.600Z,10.40
2023-01-01T06:18:43.640Z,10.30
2023-01-01T06:21:12.410Z,10.30
2023-01-01T06:23:40.213Z,10.30
2023-01-01T06:26:08.629Z,10.30
2023-01-01T06:28:36.306Z,10.30
2023-01-01T06:31:05.081Z,10.30
2023-01-01T06:33:33.146Z,10.40
2023-01-01T06:36:02.791Z,10.40
2023-01-01T06:38:31.459Z,10.40
2023-01-01T06:40:59.605Z,10.40
2023-01-01T06:43:27.673Z,10.30
2023-01-01T06:46:02.243Z,10.30
2023-01-01T06:48:30.528Z,10.30
2023-01-01T06:50:58.169Z,10.30
2023-01-01T06:53:27.279Z,10.40
2023-01-01T06:55:57.289Z,10.30
2023-01-01T06:58:25.264Z,10.30
2023-01-01T07:00:52.911Z,10.20
2023-01-01T07:03:20.777Z,10.30
2023-01-01T07:05:48.443Z,10.20
2023-01-01T07:08:16.076Z,10.20
2023-01-01T07:10:45.316Z,10.10
2023-01-01T07:13:12.972Z,10.10
2023-01-01T07:15:40.666Z,10.10
2023-01-01T07:18:08.341Z,10.10
2023-01-01T07:20:36.037Z,10.00
2023-01-01T07:23:03.714Z,10.00
2023-01-01T07:25:31.382Z,10.00
2023-01-01T07:28:00.388Z,9.90
2023-01-01T07:30:28.040Z,9.90
2023-01-01T07:32:55.924Z,9.90
2023-01-01T07:35:23.595Z,9.90
2023-01-01T07:37:51.248Z,9.90
2023-01-01T07:40:18.913Z,9.90
2023-01-01T07:42:46.568Z,10.00
2023-01-01T07:45:15.671Z,10.00
2023-01-01T07:47:43.332Z,10.00
2023-01-01T07:50:15.971Z,10.10
2023-01-01T07:52:43.648Z,10.10
2023-01-01T07:55:13.048Z,10.10
2023-01-01T07:57:40.724Z,10.20
2023-01-01T08:00:08.887Z,10.20
2023-01-01T08:02:38.143Z,10.30
2023-01-01T08:05:06.346Z,10.40
2023-01-01T08:07:34.114Z,10.40
2023-01-01T08:10:01.836Z,10.50
2023-01-01T08:12:29.501Z,10.60
2023-01-01T08:14:57.470Z,10.70
2023-01-01T08:17:25.133Z,10.70
2023-01-01T08:19:54.130Z,10.80
2023-01-01T08:22:21.819Z,10.90
2023-01-01T08:24:49.649Z,11.00
2023-01-01T08:27:17.532Z,11.10
2023-01-01T08:29:45.471Z,11.20
2023-01-01T08:32:13.164Z,11.30
2023-01-01T08:34:40.818Z,11.40
2023-01-01T08:37:12.448Z,11.50
2023-01-01T08:39:40.414Z,11.60
2023-01-01T08:42:12.196Z,11.70
2023-01-01T08:44:40.289Z,11.70
2023-01-01T08:47:07.948Z,11.80
2023-01-01T08:49:35.601Z,11.90
2023-01-01T08:52:03.265Z,12.00
2023-01-01T08:54:32.251Z,12.10
2023-01-01T08:57:00.034Z,12.10
2023-01-01T08:59:27.725Z,12.20
2023-01-01T09:01:55.544Z,12.30
2023-01-01T09:04:23.447Z,12.30
2023-01-01T09:06:53.244Z,12.30
2023-01-01T09:09:24.311Z,12.40
2023-01-01T09:11:57.216Z,12.40
2023-01-01T09:14:24.961Z,12.40
2023-01-01T09:16:52.673Z,12.40
2023-01-01T09:19:20.424Z,12.40
2023-01-01T09:21:48.159Z,12.40
2023-01-01T09:24:15.834Z,12.40
2023-01-01T09:26:43.505Z,12.40
2023-01-01T09:29:12.527Z,12.50
2023-01-01T09:31:40.213Z,12.50
2023-01-01T09:34:07.956Z,12.50
2023-01-01T09:36:35.958Z,12.50
2023-01-01T09:39:03.677Z,12.50
2023-01-01T09:41:37.112Z,12.60
2023-01-01T09:44:10.586Z,12.60
2023-01-01T09:46:39.745Z,12.60
2023-01-01T09:49:10.830Z,12.70
2023-01-01T09:51:49.867Z,12.70
2023-01-01T09:54:25.402Z,12.70
2023-01-01T09:56:55.861Z,12.80
2023-01-01T09:59:23.590Z,12.90
2023-01-01T10:01:56.610Z,13.00
2023-01-01T10:04:37.743Z,13.00
2023-01-01T10:07:11.510Z,13.00
2023-01-01T10:09:42.834Z,13.10
2023-01-01T10:12:14.043Z,13.10
2023-01-01T10:14:43.097Z,13.10
2023-01-01T10:17:16.032Z,13.10
2023-01-01T10:19:45.336Z,13.10
2023-01-01T10:22:15.616Z,13.10
2023-01-01T10:24:46.205Z,13.20
2023-01-01T10:27:21.208Z,13.30
2023-01-01T10:29:51.021Z,13.40
2023-01-01T10:32:22.216Z,13.40
2023-01-01T10:34:51.019Z,13.50
2023-01-01T10:37:19.195Z,13.60
2023-01-01T10:39:47.386Z,13.60
2023-01-01T10:42:15.533Z,13.60
2023-01-01T10:44:43.553Z,13.60
2023-01-01T10:47:26.836Z,13.70
2023-01-01T10:49:55.181Z,13.70
2023-01-01T10:52:25.629Z,13.60
2023-01-01T10:54:53.303Z,13.70
2023-01-01T10:57:29.052Z,13.60
2023-01-01T11:00:09.894Z,13.70
2023-01-01T11:02:39.101Z,13.70
2023-01-01T11:05:22.062Z,13.70
2023-01-01T11:07:50.425Z,13.80
2023-01-01T11:10:19.719Z,13.80
2023-01-01T11:13:05.146Z,13.90
2023-01-01T11:15:37.488Z,13.90
2023-01-01T11:18:07.646Z,13.90
2023-01-01T11:20:35.489Z,13.90
2023-01-01T11:23:18.239Z,13.90
2023-01-01T11:25:57.575Z,13.90
2023-01-01T11:28:26.056Z,13.90
2023-01-01T11:31:01.126Z,13.90
2023-01-01T11:33:31.897Z,13.80
2023-01-01T11:35:59.801Z,13.80
2023-01-01T11:38:30.200Z,13.80
2023-01-01T11:41:03.421Z,13.90
2023-01-01T11:43:33.023Z,13.90
2023-01-01T11:46:00.817Z,14.00
2023-01-01T11:48:31.157Z,14.10
2023-01-01T11:50:59.578Z,14.10
2023-01-01T11:53:29.158Z,14.10
2023-01-01T11:56:01.338Z,14.10
2023-01-01T11:58:31.402Z,14.20
2023-01-01T12:01:01.890Z,14.10
2023-01-01T12:03:34.047Z,14.20
2023-01-01T12:06:05.127Z,14.20
2023-01-01T12:08:34.639Z,14.20
2023-01-01T12:11:06.146Z,14.20
2023-01-01T12:13:36.280Z,14.30
2023-01-01T12:16:07.875Z,14.30
2023-01-01T12:18:40.478Z,14.40
2023-01-01T12:21:11.875Z,14.50
2023-01-01T12:23:39.784Z,14.50
2023-01-01T12:26:12.286Z,14.50
2023-01-01T12:28:45.423Z,14.60
2023-01-01T12:31:19.659Z,14.70
2023-01-01T12:33:54.101Z,14.70
2023-01-01T12:36:30.003Z,14.70
2023-01-01T12:39:25.914Z,14.70
2023-01-01T12:41:57.667Z,14.70
2023-01-01T12:44:31.993Z,14.60
2023-01-01T12:47:03.762Z,14.50
2023-01-01T12:49:47.984Z,14.40
2023-01-01T12:52:21.132Z,14.40
2023-01-01T12:55:06.785Z,14.40
2023-01-01T12:57:36.909Z,14.40
2023-01-01T13:00:05.696Z,14.40
2023-01-01T13:02:35.597Z,14.40
2023-01-01T13:05:08.838Z,14.40
2023-01-01T13:07:37.670Z,14.40
2023-01-01T13:10:09.511Z,14.50
2023-01-01T13:12:37.895Z,14.50
2023-01-01T13:15:20.481Z,14.50
2023-01-01T13:17:53.074Z,14.50
2023-01-01T13:20:24.719Z,14.60
2023-01-01T13:22:52.424Z,14.50
2023-01-01T13:25:21.142Z,14.40
2023-01-01T13:28:05.416Z,14.40
2023-01-01T13:30:46.674Z,14.30
2023-01-01T13:33:23.393Z,14.30
2023-01-01T13:36:14.126Z,14.20
2023-01-01T13:38:46.753Z,14.10
2023-01-01T13:41:29.418Z,14.10
2023-01-01T13:44:11.932Z,14.10
2023-01-01T13:46:42.833Z,14.10
2023-01-01T13:49:16.117Z,14.00
2023-01-01T13:52:05.211Z,14.00
2023-01-01T13:54:57.312Z,14.00
2023-01-01T13:57:33.112Z,13.90
2023-01-01T14:00:06.027Z,13.90
2023-01-01T14:02:36.395Z,13.80
2023-01-01T14:05:06.503Z,13.90
2023-01-01T14:07:51.195Z,14.00
2023-01-01T14:10:28.915Z,13.90
2023-01-01T14:12:58.134Z,13.80
2023-01-01T14:15:27.527Z,13.80
2023-01-01T14:17:56.657Z,13.80
2023-01-01T14:20:28.583Z,13.90
2023-01-01T14:22:56.272Z,13.90
2023-01-01T14:25:26.668Z,13.90
2023-01-01T14:27:57.348Z,13.90
2023-01-01T14:30:25.855Z,14.00
2023-01-01T14:32:56.862Z,14.00
2023-01-01T14:35:24.684Z,14.00
2023-01-01T14:37:52.454Z,14.00
2023-01-01T14:40:26.541Z,13.90
2023-01-01T14:42:57.834Z,13.90
2023-01-01T14:45:26.350Z,13.80
2023-01-01T14:47:56.095Z,13.70
2023-01-01T14:50:26.314Z,13.60
2023-01-01T14:52:56.735Z,13.60
2023-01-01T14:55:26.606Z,13.60
2023-01-01T14:57:57.376Z,13.50
2023-01-01T15:00:25.949Z,13.50
2023-01-01T15:02:53.722Z,13.40
2023-01-01T15:05:34.626Z,13.40
2023-01-01T15:08:03.600Z,13.40
2023-01-01T15:10:32.942Z,13.40
2023-01-01T15:13:05.041Z,13.40
2023-01-01T15:15:40.815Z,13.30
2023-01-01T15:18:28.514Z,13.40
2023-01-01T15:20:57.502Z,13.40
2023-01-01T15:23:25.196Z,13.40
2023-01-01T15:25:53.039Z,13.30
2023-01-01T15:28:21.423Z,13.40
2023-01-01T15:30:52.887Z,13.40
2023-01-01T15:33:20.670Z,13.50
2023-01-01T15:35:49.273Z,13.50
2023-01-01T15:38:20.989Z,13.50
2023-01-01T15:40:53.203Z,13.50
2023-01-01T15:43:23.054Z,13.60
2023-01-01T15:45:55.392Z,13.70
2023-01-01T15:48:26.043Z,13.70
2023-01-01T15:51:00.685Z,13.70
2023-01-01T15:53:31.120Z,13.80
2023-01-01T15:56:00.291Z,13.80
2023-01-01T15:58:32.226Z,13.80
2023-01-01T16:01:02.930Z,13.90
2023-01-01T16:03:31.996Z,13.90
2023-01-01T16:06:00.074Z,13.90
2023-01-01T16:08:27.994Z,13.90
2023-01-01T16:10:56.974Z,13.90
2023-01-01T16:13:24.633Z,13.90
2023-01-01T16:15:52.722Z,13.90
2023-01-01T16:18:20.961Z,13.90
2023-01-01T16:20:48.631Z,13.90
2023-01-01T16:23:16.990Z,14.00
2023-01-01T16:25:44.642Z,13.90
2023-01-01T16:28:14.662Z,13.90
2023-01-01T16:30:43.481Z,13.90
2023-01-01T16:33:13.416Z,13.80
2023-01-01T16:35:41.065Z,13.80
2023-01-01T16:38:08.719Z,13.80
2023-01-01T16:40:38.085Z,13.70
2023-01-01T16:43:09.849Z,13.80
2023-01-01T16:45:38.865Z,13.70
2023-01-01T16:48:06.757Z,13.70
2023-01-01T16:50:34.402Z,13.70
2023-01-01T16:53:02.041Z,13.70
2023-01-01T16:55:29.701Z,13.70
2023-01-01T16:58:21.203Z,13.70
2023-01-01T17:00:46.327Z,13.60
2023-01-01T17:03:14.384Z,13.50
2023-01-01T17:05:44.660Z,13.50
2023-01-01T17:08:12.467Z,13.60
2023-01-01T17:10:40.122Z,13.60
2023-01-01T17:13:07.748Z,13.60
2023-01-01T17:15:35.442Z,13.80
2023-01-01T17:18:04.720Z,13.70
2023-01-01T17:20:32.452Z,13.80
2023-01-01T17:23:00.138Z,13.90
2023-01-01T17:25:27.787Z,13.90
2023-01-01T17:27:55.589Z,14.00
2023-01-01T17:30:23.315Z,14.00
2023-01-01T17:32:51.037Z,14.00
2023-01-01T17:35:20.241Z,14.00
2023-01-01T17:37:47.931Z,14.00
2023-01-01T17:40:15.654Z,14.00
2023-01-01T17:42:43.325Z,14.00
2023-01-01T17:45:11.167Z,14.00
2023-01-01T17:47:39.160Z,13.90
2023-01-01T17:50:07.163Z,14.00
2023-01-01T17:52:36.212Z,14.00
2023-01-01T17:55:04.019Z,13.90
2023-01-01T17:57:31.684Z,13.90
2023-01-01T17:59:59.677Z,13.90
2023-01-01T18:02:27.556Z,13.90
2023-01-01T18:04:55.369Z,13.90
2023-01-01T18:07:23.484Z,13.90
2023-01-01T18:09:52.493Z,13.90
2023-01-01T18:12:21.395Z,13.80
2023-01-01T18:14:49.032Z,13.70
2023-01-01T18:17:16.697Z,13.60
2023-01-01T18:19:45.610Z,13.70
2023-01-01T18:22:13.511Z,13.70
2023-01-01T18:24:41.215Z,13.70
2023-01-01T18:27:10.196Z,13.70
2023-01-01T18:29:37.843Z,13.80
2023-01-01T18:32:05.721Z,13.70
2023-01-01T18:34:33.502Z,13.70
2023-01-01T18:37:01.180Z,13.70
2023-01-01T18:39:30.315Z,13.70
2023-01-01T18:42:06.127Z,13.60
2023-01-01T18:44:35.589Z,13.60
2023-01-01T18:47:12.507Z,13.60
2023-01-01T18:49:40.724Z,13.50
2023-01-01T18:52:13.575Z,13.50
2023-01-01T18:54:41.296Z,13.50
2023-01-01T18:57:11.147Z,13.50
2023-01-01T18:59:40.136Z,13.50
2023-01-01T19:02:18.858Z,13.40
2023-01-01T19:04:46.579Z,13.20
2023-01-01T19:07:14.679Z,13.10
2023-01-01T19:09:42.399Z,13.10
2023-01-01T19:12:11.513Z,13.20
2023-01-01T19:14:41.050Z,13.10
2023-01-01T19:17:13.852Z,13.10
2023-01-01T19:19:41.568Z,13.10
2023-01-01T19:22:16.752Z,13.20
2023-01-01T19:24:44.878Z,13.10
2023-01-01T19:27:16.080Z,13.00
2023-01-01T19:29:45.888Z,13.00
2023-01-01T19:32:13.516Z,12.90
2023-01-01T19:34:41.166Z,13.00
2023-01-01T19:37:09.275Z,13.00
2023-01-01T19:39:37.841Z,13.10
2023-01-01T19:42:06.906Z,13.20
2023-01-01T19:44:35.210Z,13.20
2023-01-01T19:47:05.276Z,13.30
2023-01-01T19:49:33.064Z,13.30
2023-01-01T19:52:00.731Z,13.30
2023-01-01T19:54:28.359Z,13.20
2023-01-01T19:56:56.000Z,13.20
2023-01-01T19:59:29.262Z,13.20
2023-01-01T20:02:34.920Z,13.20
2023-01-01T20:04:49.663Z,13.10
2023-01-01T20:07:17.474Z,13.10
2023-01-01T20:09:45.154Z,13.10
2023-01-01T20:12:12.754Z,13.10
2023-01-01T20:14:40.397Z,13.10
2023-01-01T20:17:07.993Z,13.20
2023-01-01T20:19:36.236Z,13.20
2023-01-01T20:22:14.172Z,13.10
2023-01-01T20:24:42.359Z,13.20
2023-01-01T20:27:10.361Z,13.20
2023-01-01T20:29:38.063Z,13.30
2023-01-01T20:32:06.471Z,13.30
2023-01-01T20:34:34.175Z,13.40
2023-01-01T20:37:19.375Z,13.40
2023-01-01T20:39:48.353Z,13.30
2023-01-01T20:42:16.001Z,13.40
2023-01-01T20:44:44.049Z,13.40
2023-01-01T20:47:11.975Z,13.40
2023-01-01T20:49:39.655Z,13.40
2023-01-01T20:52:07.349Z,13.40
2023-01-01T20:54:35.023Z,13.30
2023-01-01T20:57:04.221Z,13.30
2023-01-01T20:59:37.371Z,13.20
2023-01-01T21:02:06.281Z,13.20
2023-01-01T21:04:38.824Z,13.20
2023-01-01T21:07:07.722Z,13.30
2023-01-01T21:09:35.367Z,13.30
2023-01-01T21:12:04.696Z,13.30
2023-01-01T21:14:32.433Z,13.40
2023-01-01T21:17:00.192Z,13.40
2023-01-01T21:19:28.759Z,13.40
2023-01-01T21:21:57.911Z,13.50
2023-01-01T21:24:26.887Z,13.50
2023-01-01T21:26:55.976Z,13.50
2023-01-01T21:29:26.302Z,13.50
2023-01-01T21:31:59.313Z,13.50
2023-01-01T21:34:31.663Z,13.50
2023-01-01T21:37:02.385Z,13.50
2023-01-01T21:39:30.510Z,13.50
2023-01-01T21:42:07.173Z,13.40
2023-01-01T21:44:36.201Z,13.40
2023-01-01T21:47:06.701Z,13.40
2023-01-01T21:49:36.150Z,13.30
2023-01-01T21:52:04.516Z,13.20
2023-01-01T21:54:33.808Z,13.10
2023-01-01T21:57:02.328Z,13.10
2023-01-01T21:59:35.003Z,13.00
2023-01-01T22:02:31.084Z,13.00
2023-01-01T22:05:00.217Z,12.90
2023-01-01T22:10:20.047Z,12.80
2023-01-01T22:12:47.891Z,12.80
2023-01-01T22:15:28.540Z,12.70
2023-01-01T22:18:03.894Z,12.60
2023-01-01T22:20:34.460Z,12.60
2023-01-01T22:23:05.443Z,12.60
2023-01-01T22:25:33.617Z,12.60
2023-01-01T22:28:06.114Z,12.60
2023-01-01T22:30:40.166Z,12.50
2023-01-01T22:33:14.895Z,12.60
2023-01-01T22:35:42.553Z,12.50
2023-01-01T22:38:15.724Z,12.40
2023-01-01T22:40:43.474Z,12.40
2023-01-01T22:43:13.316Z,12.40
2023-01-01T22:45:43.163Z,12.40
2023-01-01T22:48:17.554Z,12.40
2023-01-01T22:50:45.731Z,12.40
2023-01-01T22:53:13.416Z,12.40
2023-01-01T22:55:41.147Z,12.40
2023-01-01T22:58:08.827Z,12.40
2023-01-01T23:00:36.501Z,12.30
2023-01-01T23:03:04.274Z,12.40
2023-01-01T23:05:33.376Z,12.40
2023-01-01T23:08:01.061Z,12.40
2023-01-01T23:10:28.885Z,12.40
2023-01-01T23:12:56.603Z,12.30
2023-01-01T23:15:55.553Z,12.40
2023-01-01T23:18:23.608Z,12.40
2023-01-01T23:20:52.686Z,12.30
2023-01-01T23:23:20.631Z,12.30
2023-01-01T23:25:48.424Z,12.30
2023-01-01T23:28:16.147Z,12.40
2023-01-01T23:30:43.873Z,12.40
2023-01-01T23:33:11.768Z,12.50
2023-01-01T23:35:39.540Z,12.50
2023-01-01T23:38:08.559Z,12.50
2023-01-01T23:40:36.210Z,12.60
2023-01-01T23:43:03.848Z,12.60
2023-01-01T23:45:31.520Z,12.70
2023-01-01T23:47:59.207Z,12.70
2023-01-01T23:50:26.903Z,12.70
2023-01-01T23:52:54.586Z,12.70
2023-01-01T23:55:23.818Z,12.70
2023-01-01T23:57:52.025Z,12.60
